Arjay, Kentucky
Current Conditions -  °F | °C
As of 3:35 PM on Saturday 20 Dec 2014 (Local Time) from K1A6 Reporting Station
Overcast Overcast  
Wind Chill:   Ceiling: 4800
Heat Index:   Visibility: 10mi
Dew Point:   Wind: 6mph
Humidity: 65%   Direction: 50°NE
Pressure: 30.2"   Gusts: NA
Location:  36.8°N, 83.65°W
Report Text: K1A6 202035Z AUTO 05005KT 10SM SCT031 OVC048 06/00 A3020 RMK AO2 T00620000
Loading
Personal Weather Stations






























Interactive Weather Map New forecast layout! Learn more

10-Day Weather Forecast

Advertisements
Track Severe Weather on mobile